KSFO/SFO METAR and TAF weather

Enter ICAO airport designator
Station Type Date Time Source
KSFO METAR 2022/09/26 08:56 UTC NOAA

KSFO 260856Z 30008KT 10SM FEW004 14/13 A2999 RMK AO2 SLP156 T01440128 56003


Station Type Date Time Source
KSFO Decoded METAR 2022/09/26 08:56 UTC NOAA

SAN FRANCISCO INTERNATIONAL AIRPORT , CA, United States (KSFO) 37-37N 122-22W 26M
Sep 26, 2022 - 04:56 AM EDT / 2022.09.26 0856 UTC
Wind: from the WNW (300 degrees) at 9 MPH (8 KT):0
Visibility: 10 mile(s):0
Sky conditions: mostly clear
Temperature: 57.9 F (14.4 C)
Dew Point: 55.0 F (12.8 C)
Relative Humidity: 90%
Pressure (altimeter): 29.99 in. Hg (1015 hPa)
Pressure tendency: 0.01 inches (0.3 hPa) lower than three hours ago
ob: KSFO 260856Z 30008KT 10SM FEW004 14/13 A2999 RMK AO2 SLP156 T01440128 56003
cycle: 9

Station Type Date Time Source
KSFO TAF 2022/09/26 09:06 UTC NOAA

TAF
AMD KSFO 260904Z 2609/2712 30007KT P6SM FEW004
TEMPO 2609/2611 BKN008
FM261100 30006KT P6SM FEW004 BKN008
FM261730 30006KT P6SM FEW006 SCT010
FM262100 31014G20KT P6SM FEW007
FM270300 30008KT P6SM SCT007
FM270800 27008KT P6SM BKN007

Example: see airport list